sensor_id;sensor_type;location;lat;lon;timestamp;P1;durP1;ratioP1;P2;durP2;ratioP2
11829;SDS011;5972;42.134;24.718;2022-10-26T00:01:04;21.65;;;7.03;;
11829;SDS011;5972;42.134;24.718;2022-10-26T00:03:33;23.17;;;7.32;;
11829;SDS011;5972;42.134;24.718;2022-10-26T00:06:01;20.95;;;6.55;;
11829;SDS011;5972;42.134;24.718;2022-10-26T00:08:32;16.58;;;7.18;;
11829;SDS011;5972;42.134;24.718;2022-10-26T00:10:58;23.65;;;6.50;;
11829;SDS011;5972;42.134;24.718;2022-10-26T00:13:26;20.55;;;6.43;;
11829;SDS011;5972;42.134;24.718;2022-10-26T00:15:54;19.90;;;6.90;;
11829;SDS011;5972;42.134;24.718;2022-10-26T00:18:21;18.48;;;6.43;;
11829;SDS011;5972;42.134;24.718;2022-10-26T00:20:48;20.08;;;6.40;;
11829;SDS011;5972;42.134;24.718;2022-10-26T00:23:16;18.88;;;6.50;;
11829;SDS011;5972;42.134;24.718;2022-10-26T00:25:43;27.95;;;6.68;;
11829;SDS011;5972;42.134;24.718;2022-10-26T00:28:09;15.68;;;5.90;;
11829;SDS011;5972;42.134;24.718;2022-10-26T00:30:37;23.58;;;6.10;;
11829;SDS011;5972;42.134;24.718;2022-10-26T00:33:08;19.92;;;5.88;;
11829;SDS011;5972;42.134;24.718;2022-10-26T00:35:37;25.38;;;6.55;;
11829;SDS011;5972;42.134;24.718;2022-10-26T00:38:04;17.13;;;5.07;;
11829;SDS011;5972;42.134;24.718;2022-10-26T00:40:31;16.25;;;4.82;;
11829;SDS011;5972;42.134;24.718;2022-10-26T00:42:58;21.38;;;5.07;;
11829;SDS011;5972;42.134;24.718;2022-10-26T00:45:27;14.35;;;4.63;;
11829;SDS011;5972;42.134;24.718;2022-10-26T00:47:55;13.95;;;4.28;;
11829;SDS011;5972;42.134;24.718;2022-10-26T00:50:28;19.10;;;4.55;;
11829;SDS011;5972;42.134;24.718;2022-10-26T00:52:58;19.85;;;4.65;;
11829;SDS011;5972;42.134;24.718;2022-10-26T00:55:30;18.65;;;4.40;;
11829;SDS011;5972;42.134;24.718;2022-10-26T00:58:00;16.67;;;3.90;;
11829;SDS011;5972;42.134;24.718;2022-10-26T01:00:30;13.18;;;4.32;;
11829;SDS011;5972;42.134;24.718;2022-10-26T01:02:57;15.13;;;4.55;;
11829;SDS011;5972;42.134;24.718;2022-10-26T01:05:29;16.55;;;4.75;;
11829;SDS011;5972;42.134;24.718;2022-10-26T01:07:56;13.07;;;4.45;;
11829;SDS011;5972;42.134;24.718;2022-10-26T01:10:24;13.25;;;4.00;;
11829;SDS011;5972;42.134;24.718;2022-10-26T01:12:52;17.15;;;4.57;;
11829;SDS011;5972;42.134;24.718;2022-10-26T01:15:20;12.23;;;4.43;;
11829;SDS011;5972;42.134;24.718;2022-10-26T01:17:54;15.88;;;4.28;;
11829;SDS011;5972;42.134;24.718;2022-10-26T01:20:52;21.98;;;4.55;;
11829;SDS011;5972;42.134;24.718;2022-10-26T01:23:29;15.85;;;4.68;;
11829;SDS011;5972;42.134;24.718;2022-10-26T01:26:14;18.13;;;4.75;;
11829;SDS011;5972;42.134;24.718;2022-10-26T01:29:12;15.70;;;4.43;;
11829;SDS011;5972;42.134;24.718;2022-10-26T01:31:54;9.93;;;3.90;;
11829;SDS011;5972;42.134;24.718;2022-10-26T01:34:27;19.25;;;4.80;;
11829;SDS011;5972;42.134;24.718;2022-10-26T01:37:00;11.25;;;4.30;;
11829;SDS011;5972;42.134;24.718;2022-10-26T01:39:35;17.27;;;4.90;;
11829;SDS011;5972;42.134;24.718;2022-10-26T01:42:04;17.23;;;4.55;;
11829;SDS011;5972;42.134;24.718;2022-10-26T01:44:35;17.45;;;4.80;;
11829;SDS011;5972;42.134;24.718;2022-10-26T01:47:08;17.45;;;4.68;;
11829;SDS011;5972;42.134;24.718;2022-10-26T01:49:38;22.90;;;4.80;;
11829;SDS011;5972;42.134;24.718;2022-10-26T01:52:08;13.80;;;4.40;;
11829;SDS011;5972;42.134;24.718;2022-10-26T01:54:36;16.15;;;4.18;;
11829;SDS011;5972;42.134;24.718;2022-10-26T01:57:03;15.73;;;4.60;;
11829;SDS011;5972;42.134;24.718;2022-10-26T01:59:42;18.40;;;4.78;;
11829;SDS011;5972;42.134;24.718;2022-10-26T02:02:37;15.30;;;4.78;;
11829;SDS011;5972;42.134;24.718;2022-10-26T02:08:22;14.73;;;4.38;;
11829;SDS011;5972;42.134;24.718;2022-10-26T02:11:00;13.15;;;4.28;;
11829;SDS011;5972;42.134;24.718;2022-10-26T02:13:51;10.98;;;3.85;;
11829;SDS011;5972;42.134;24.718;2022-10-26T02:16:22;11.05;;;4.05;;
11829;SDS011;5972;42.134;24.718;2022-10-26T02:18:55;15.80;;;4.88;;
11829;SDS011;5972;42.134;24.718;2022-10-26T02:21:33;13.27;;;4.50;;
11829;SDS011;5972;42.134;24.718;2022-10-26T02:24:03;12.07;;;4.47;;
11829;SDS011;5972;42.134;24.718;2022-10-26T02:26:33;13.35;;;4.50;;
11829;SDS011;5972;42.134;24.718;2022-10-26T02:29:03;15.40;;;4.70;;
11829;SDS011;5972;42.134;24.718;2022-10-26T02:31:40;18.08;;;5.07;;
11829;SDS011;5972;42.134;24.718;2022-10-26T02:34:20;14.38;;;4.82;;
11829;SDS011;5972;42.134;24.718;2022-10-26T02:39:28;15.27;;;4.22;;
11829;SDS011;5972;42.134;24.718;2022-10-26T02:41:58;15.52;;;4.28;;
11829;SDS011;5972;42.134;24.718;2022-10-26T02:44:28;14.15;;;4.38;;
11829;SDS011;5972;42.134;24.718;2022-10-26T02:46:57;18.20;;;4.85;;
11829;SDS011;5972;42.134;24.718;2022-10-26T02:49:26;13.93;;;3.83;;
11829;SDS011;5972;42.134;24.718;2022-10-26T02:51:55;17.88;;;4.38;;
11829;SDS011;5972;42.134;24.718;2022-10-26T02:54:28;13.68;;;4.70;;
11829;SDS011;5972;42.134;24.718;2022-10-26T02:57:02;14.40;;;4.85;;
11829;SDS011;5972;42.134;24.718;2022-10-26T02:59:35;11.32;;;4.63;;
11829;SDS011;5972;42.134;24.718;2022-10-26T03:02:06;18.65;;;4.80;;
11829;SDS011;5972;42.134;24.718;2022-10-26T03:04:40;14.45;;;4.53;;
11829;SDS011;5972;42.134;24.718;2022-10-26T03:07:08;11.52;;;4.22;;
11829;SDS011;5972;42.134;24.718;2022-10-26T03:09:35;15.05;;;4.20;;
11829;SDS011;5972;42.134;24.718;2022-10-26T03:12:02;16.33;;;4.13;;
11829;SDS011;5972;42.134;24.718;2022-10-26T03:14:29;16.58;;;4.35;;
11829;SDS011;5972;42.134;24.718;2022-10-26T03:16:56;14.32;;;4.30;;
11829;SDS011;5972;42.134;24.718;2022-10-26T03:19:23;13.77;;;4.95;;
11829;SDS011;5972;42.134;24.718;2022-10-26T03:21:51;14.95;;;4.47;;
11829;SDS011;5972;42.134;24.718;2022-10-26T03:24:18;13.27;;;4.55;;
11829;SDS011;5972;42.134;24.718;2022-10-26T03:26:44;16.38;;;4.20;;
11829;SDS011;5972;42.134;24.718;2022-10-26T03:29:11;15.80;;;4.40;;
11829;SDS011;5972;42.134;24.718;2022-10-26T03:31:40;13.75;;;4.35;;
11829;SDS011;5972;42.134;24.718;2022-10-26T03:34:07;16.88;;;4.32;;
11829;SDS011;5972;42.134;24.718;2022-10-26T03:36:34;17.35;;;4.75;;
11829;SDS011;5972;42.134;24.718;2022-10-26T03:39:02;13.73;;;4.35;;
11829;SDS011;5972;42.134;24.718;2022-10-26T03:41:29;17.48;;;4.63;;
11829;SDS011;5972;42.134;24.718;2022-10-26T03:43:56;15.65;;;3.92;;
11829;SDS011;5972;42.134;24.718;2022-10-26T03:46:23;17.73;;;4.40;;
11829;SDS011;5972;42.134;24.718;2022-10-26T03:48:49;13.10;;;4.00;;
11829;SDS011;5972;42.134;24.718;2022-10-26T03:51:16;14.38;;;4.53;;
11829;SDS011;5972;42.134;24.718;2022-10-26T03:53:43;11.90;;;4.20;;
11829;SDS011;5972;42.134;24.718;2022-10-26T03:56:11;13.98;;;4.38;;
11829;SDS011;5972;42.134;24.718;2022-10-26T03:58:38;15.48;;;3.95;;
11829;SDS011;5972;42.134;24.718;2022-10-26T04:01:05;12.50;;;4.18;;
11829;SDS011;5972;42.134;24.718;2022-10-26T04:03:31;13.82;;;4.57;;
11829;SDS011;5972;42.134;24.718;2022-10-26T04:05:59;13.25;;;5.20;;
11829;SDS011;5972;42.134;24.718;2022-10-26T04:08:26;17.83;;;5.45;;
11829;SDS011;5972;42.134;24.718;2022-10-26T04:10:53;15.95;;;4.72;;
11829;SDS011;5972;42.134;24.718;2022-10-26T04:13:21;15.30;;;4.63;;
11829;SDS011;5972;42.134;24.718;2022-10-26T04:15:48;16.40;;;4.75;;
11829;SDS011;5972;42.134;24.718;2022-10-26T04:18:15;18.85;;;4.32;;
11829;SDS011;5972;42.134;24.718;2022-10-26T04:20:42;11.98;;;4.20;;
11829;SDS011;5972;42.134;24.718;2022-10-26T04:23:10;13.95;;;3.97;;
11829;SDS011;5972;42.134;24.718;2022-10-26T04:25:38;19.77;;;4.60;;
11829;SDS011;5972;42.134;24.718;2022-10-26T04:28:05;19.58;;;4.20;;
11829;SDS011;5972;42.134;24.718;2022-10-26T04:30:34;17.10;;;3.95;;
11829;SDS011;5972;42.134;24.718;2022-10-26T04:33:08;11.80;;;3.80;;
11829;SDS011;5972;42.134;24.718;2022-10-26T04:35:35;13.05;;;3.97;;
11829;SDS011;5972;42.134;24.718;2022-10-26T04:38:02;13.52;;;4.28;;
11829;SDS011;5972;42.134;24.718;2022-10-26T04:40:30;11.80;;;4.10;;
11829;SDS011;5972;42.134;24.718;2022-10-26T04:42:58;15.85;;;4.38;;
11829;SDS011;5972;42.134;24.718;2022-10-26T04:45:25;15.30;;;4.78;;
11829;SDS011;5972;42.134;24.718;2022-10-26T04:47:59;14.00;;;4.35;;
11829;SDS011;5972;42.134;24.718;2022-10-26T04:50:28;20.92;;;4.78;;
11829;SDS011;5972;42.134;24.718;2022-10-26T04:52:55;15.82;;;5.32;;
11829;SDS011;5972;42.134;24.718;2022-10-26T04:55:22;12.05;;;4.07;;
11829;SDS011;5972;42.134;24.718;2022-10-26T04:57:49;14.10;;;4.53;;
11829;SDS011;5972;42.134;24.718;2022-10-26T05:00:15;13.07;;;4.10;;
11829;SDS011;5972;42.134;24.718;2022-10-26T05:02:42;11.13;;;4.30;;
11829;SDS011;5972;42.134;24.718;2022-10-26T05:05:11;17.20;;;4.38;;
11829;SDS011;5972;42.134;24.718;2022-10-26T05:07:38;14.70;;;4.10;;
11829;SDS011;5972;42.134;24.718;2022-10-26T05:10:05;17.38;;;4.20;;
11829;SDS011;5972;42.134;24.718;2022-10-26T05:12:32;15.52;;;5.00;;
11829;SDS011;5972;42.134;24.718;2022-10-26T05:14:59;15.10;;;4.78;;
11829;SDS011;5972;42.134;24.718;2022-10-26T05:17:26;15.20;;;4.25;;
11829;SDS011;5972;42.134;24.718;2022-10-26T05:19:53;14.70;;;4.43;;
11829;SDS011;5972;42.134;24.718;2022-10-26T05:22:23;21.02;;;4.15;;
11829;SDS011;5972;42.134;24.718;2022-10-26T05:24:50;14.68;;;4.65;;
11829;SDS011;5972;42.134;24.718;2022-10-26T05:27:17;21.85;;;4.60;;
11829;SDS011;5972;42.134;24.718;2022-10-26T05:29:44;19.55;;;4.28;;
11829;SDS011;5972;42.134;24.718;2022-10-26T05:32:11;17.05;;;4.55;;
11829;SDS011;5972;42.134;24.718;2022-10-26T05:34:38;16.35;;;4.53;;
11829;SDS011;5972;42.134;24.718;2022-10-26T05:37:05;17.92;;;4.22;;
11829;SDS011;5972;42.134;24.718;2022-10-26T05:39:33;17.80;;;4.65;;
11829;SDS011;5972;42.134;24.718;2022-10-26T05:42:00;35.75;;;5.43;;
11829;SDS011;5972;42.134;24.718;2022-10-26T05:44:27;27.25;;;5.20;;
11829;SDS011;5972;42.134;24.718;2022-10-26T05:46:54;29.05;;;5.47;;
11829;SDS011;5972;42.134;24.718;2022-10-26T05:49:20;48.30;;;6.85;;
11829;SDS011;5972;42.134;24.718;2022-10-26T05:51:47;12.27;;;4.80;;
11829;SDS011;5972;42.134;24.718;2022-10-26T05:54:14;20.27;;;4.53;;
11829;SDS011;5972;42.134;24.718;2022-10-26T05:56:43;13.98;;;4.47;;
11829;SDS011;5972;42.134;24.718;2022-10-26T05:59:10;14.13;;;5.00;;
11829;SDS011;5972;42.134;24.718;2022-10-26T06:01:43;16.20;;;4.75;;
11829;SDS011;5972;42.134;24.718;2022-10-26T06:04:23;13.00;;;4.88;;
11829;SDS011;5972;42.134;24.718;2022-10-26T06:06:57;16.02;;;5.55;;
11829;SDS011;5972;42.134;24.718;2022-10-26T06:09:25;22.08;;;4.78;;
11829;SDS011;5972;42.134;24.718;2022-10-26T06:11:54;13.70;;;4.78;;
11829;SDS011;5972;42.134;24.718;2022-10-26T06:14:21;19.63;;;4.70;;
11829;SDS011;5972;42.134;24.718;2022-10-26T06:16:57;19.08;;;4.50;;
11829;SDS011;5972;42.134;24.718;2022-10-26T06:19:36;14.43;;;5.00;;
11829;SDS011;5972;42.134;24.718;2022-10-26T06:22:18;15.00;;;4.28;;
11829;SDS011;5972;42.134;24.718;2022-10-26T06:24:59;12.07;;;3.95;;
11829;SDS011;5972;42.134;24.718;2022-10-26T06:27:37;13.30;;;4.15;;
11829;SDS011;5972;42.134;24.718;2022-10-26T06:30:11;14.27;;;4.10;;
11829;SDS011;5972;42.134;24.718;2022-10-26T06:32:38;13.98;;;4.40;;
11829;SDS011;5972;42.134;24.718;2022-10-26T06:35:13;15.05;;;4.05;;
11829;SDS011;5972;42.134;24.718;2022-10-26T06:37:49;10.57;;;4.40;;
11829;SDS011;5972;42.134;24.718;2022-10-26T06:40:18;16.08;;;4.65;;
11829;SDS011;5972;42.134;24.718;2022-10-26T06:42:47;12.15;;;4.38;;
11829;SDS011;5972;42.134;24.718;2022-10-26T06:45:15;9.95;;;4.18;;
11829;SDS011;5972;42.134;24.718;2022-10-26T06:47:44;11.45;;;4.00;;
11829;SDS011;5972;42.134;24.718;2022-10-26T06:50:23;12.27;;;4.20;;
11829;SDS011;5972;42.134;24.718;2022-10-26T06:52:57;9.32;;;4.13;;
11829;SDS011;5972;42.134;24.718;2022-10-26T06:55:35;14.23;;;3.80;;
11829;SDS011;5972;42.134;24.718;2022-10-26T06:58:08;16.65;;;3.95;;
11829;SDS011;5972;42.134;24.718;2022-10-26T07:00:38;7.60;;;3.30;;
11829;SDS011;5972;42.134;24.718;2022-10-26T07:03:06;10.18;;;3.53;;
11829;SDS011;5972;42.134;24.718;2022-10-26T07:05:32;13.80;;;3.70;;
11829;SDS011;5972;42.134;24.718;2022-10-26T07:07:59;9.38;;;3.40;;
11829;SDS011;5972;42.134;24.718;2022-10-26T07:10:26;15.65;;;4.65;;
11829;SDS011;5972;42.134;24.718;2022-10-26T07:12:53;18.48;;;4.45;;
11829;SDS011;5972;42.134;24.718;2022-10-26T07:15:21;11.02;;;3.70;;
11829;SDS011;5972;42.134;24.718;2022-10-26T07:17:48;14.27;;;4.40;;
11829;SDS011;5972;42.134;24.718;2022-10-26T07:20:15;22.83;;;4.22;;
11829;SDS011;5972;42.134;24.718;2022-10-26T07:22:43;15.63;;;4.57;;
11829;SDS011;5972;42.134;24.718;2022-10-26T07:25:10;15.88;;;4.22;;
11829;SDS011;5972;42.134;24.718;2022-10-26T07:27:37;12.95;;;3.85;;
11829;SDS011;5972;42.134;24.718;2022-10-26T07:30:05;18.48;;;4.35;;
11829;SDS011;5972;42.134;24.718;2022-10-26T07:32:33;14.40;;;4.78;;
11829;SDS011;5972;42.134;24.718;2022-10-26T07:35:00;15.05;;;4.32;;
11829;SDS011;5972;42.134;24.718;2022-10-26T07:37:27;14.77;;;4.32;;
11829;SDS011;5972;42.134;24.718;2022-10-26T07:39:54;16.30;;;4.38;;
11829;SDS011;5972;42.134;24.718;2022-10-26T07:42:21;15.60;;;4.35;;
11829;SDS011;5972;42.134;24.718;2022-10-26T07:44:48;13.88;;;4.30;;
11829;SDS011;5972;42.134;24.718;2022-10-26T07:47:14;11.73;;;3.80;;
11829;SDS011;5972;42.134;24.718;2022-10-26T07:49:43;15.45;;;4.43;;
11829;SDS011;5972;42.134;24.718;2022-10-26T07:52:10;12.90;;;4.57;;
11829;SDS011;5972;42.134;24.718;2022-10-26T07:54:36;16.92;;;4.40;;
11829;SDS011;5972;42.134;24.718;2022-10-26T07:57:03;14.25;;;4.18;;
11829;SDS011;5972;42.134;24.718;2022-10-26T07:59:30;17.75;;;4.40;;
11829;SDS011;5972;42.134;24.718;2022-10-26T08:01:57;16.45;;;4.40;;
11829;SDS011;5972;42.134;24.718;2022-10-26T08:04:24;12.93;;;3.42;;
11829;SDS011;5972;42.134;24.718;2022-10-26T08:06:52;19.70;;;3.95;;
11829;SDS011;5972;42.134;24.718;2022-10-26T08:09:19;12.30;;;3.58;;
11829;SDS011;5972;42.134;24.718;2022-10-26T08:11:46;11.30;;;3.67;;
11829;SDS011;5972;42.134;24.718;2022-10-26T08:14:12;12.40;;;4.18;;
11829;SDS011;5972;42.134;24.718;2022-10-26T08:16:39;12.70;;;3.20;;
11829;SDS011;5972;42.134;24.718;2022-10-26T08:19:07;7.75;;;3.17;;
11829;SDS011;5972;42.134;24.718;2022-10-26T08:21:34;12.88;;;3.58;;
11829;SDS011;5972;42.134;24.718;2022-10-26T08:24:02;11.40;;;3.40;;
11829;SDS011;5972;42.134;24.718;2022-10-26T08:26:29;13.63;;;3.22;;
11829;SDS011;5972;42.134;24.718;2022-10-26T08:28:56;12.07;;;3.50;;
11829;SDS011;5972;42.134;24.718;2022-10-26T08:31:23;11.57;;;3.80;;
11829;SDS011;5972;42.134;24.718;2022-10-26T08:33:50;10.73;;;3.00;;
11829;SDS011;5972;42.134;24.718;2022-10-26T08:36:16;9.10;;;2.95;;
11829;SDS011;5972;42.134;24.718;2022-10-26T08:38:48;10.20;;;3.10;;
11829;SDS011;5972;42.134;24.718;2022-10-26T08:41:17;12.60;;;3.20;;
11829;SDS011;5972;42.134;24.718;2022-10-26T08:43:51;14.88;;;3.53;;
11829;SDS011;5972;42.134;24.718;2022-10-26T08:46:22;8.25;;;2.80;;
11829;SDS011;5972;42.134;24.718;2022-10-26T08:48:53;11.73;;;3.47;;
11829;SDS011;5972;42.134;24.718;2022-10-26T08:51:25;5.65;;;3.00;;
11829;SDS011;5972;42.134;24.718;2022-10-26T08:53:59;5.55;;;3.03;;
11829;SDS011;5972;42.134;24.718;2022-10-26T08:56:34;10.48;;;2.92;;
11829;SDS011;5972;42.134;24.718;2022-10-26T08:59:07;8.73;;;2.80;;
11829;SDS011;5972;42.134;24.718;2022-10-26T09:01:39;8.13;;;2.38;;
11829;SDS011;5972;42.134;24.718;2022-10-26T09:04:08;5.32;;;2.70;;
11829;SDS011;5972;42.134;24.718;2022-10-26T09:06:40;8.45;;;2.78;;
11829;SDS011;5972;42.134;24.718;2022-10-26T09:09:16;6.70;;;2.30;;
11829;SDS011;5972;42.134;24.718;2022-10-26T09:11:50;4.45;;;2.47;;
11829;SDS011;5972;42.134;24.718;2022-10-26T09:14:30;10.82;;;2.45;;
11829;SDS011;5972;42.134;24.718;2022-10-26T09:17:11;6.22;;;2.65;;
11829;SDS011;5972;42.134;24.718;2022-10-26T09:19:58;11.55;;;2.83;;
11829;SDS011;5972;42.134;24.718;2022-10-26T09:22:37;5.18;;;2.60;;
11829;SDS011;5972;42.134;24.718;2022-10-26T09:25:11;6.93;;;2.35;;
11829;SDS011;5972;42.134;24.718;2022-10-26T09:27:45;9.02;;;2.88;;
11829;SDS011;5972;42.134;24.718;2022-10-26T09:30:16;8.63;;;2.20;;
11829;SDS011;5972;42.134;24.718;2022-10-26T09:32:45;5.72;;;2.30;;
11829;SDS011;5972;42.134;24.718;2022-10-26T09:35:14;5.50;;;2.00;;
11829;SDS011;5972;42.134;24.718;2022-10-26T09:37:46;8.20;;;2.55;;
11829;SDS011;5972;42.134;24.718;2022-10-26T09:40:17;7.72;;;2.28;;
11829;SDS011;5972;42.134;24.718;2022-10-26T09:42:53;6.18;;;1.80;;
11829;SDS011;5972;42.134;24.718;2022-10-26T09:45:26;6.63;;;1.75;;
11829;SDS011;5972;42.134;24.718;2022-10-26T09:47:58;6.13;;;2.10;;
11829;SDS011;5972;42.134;24.718;2022-10-26T09:50:32;3.70;;;2.15;;
11829;SDS011;5972;42.134;24.718;2022-10-26T09:53:01;5.43;;;1.88;;
11829;SDS011;5972;42.134;24.718;2022-10-26T09:55:29;4.75;;;2.10;;
11829;SDS011;5972;42.134;24.718;2022-10-26T09:57:59;6.75;;;2.20;;
11829;SDS011;5972;42.134;24.718;2022-10-26T10:00:29;5.32;;;2.58;;
11829;SDS011;5972;42.134;24.718;2022-10-26T10:02:56;7.78;;;2.03;;
11829;SDS011;5972;42.134;24.718;2022-10-26T10:05:28;8.70;;;2.40;;
11829;SDS011;5972;42.134;24.718;2022-10-26T10:08:09;10.43;;;2.20;;
11829;SDS011;5972;42.134;24.718;2022-10-26T10:10:52;4.60;;;2.05;;
11829;SDS011;5972;42.134;24.718;2022-10-26T10:13:24;4.53;;;2.60;;
11829;SDS011;5972;42.134;24.718;2022-10-26T10:15:53;6.60;;;2.13;;
11829;SDS011;5972;42.134;24.718;2022-10-26T10:18:21;8.70;;;2.33;;
11829;SDS011;5972;42.134;24.718;2022-10-26T10:20:53;8.30;;;1.90;;
11829;SDS011;5972;42.134;24.718;2022-10-26T10:23:25;6.63;;;1.95;;
11829;SDS011;5972;42.134;24.718;2022-10-26T10:25:57;6.25;;;1.90;;
11829;SDS011;5972;42.134;24.718;2022-10-26T10:28:27;7.85;;;2.10;;
11829;SDS011;5972;42.134;24.718;2022-10-26T10:30:55;6.28;;;2.17;;
11829;SDS011;5972;42.134;24.718;2022-10-26T10:33:31;5.68;;;2.17;;
11829;SDS011;5972;42.134;24.718;2022-10-26T10:35:59;4.43;;;1.90;;
11829;SDS011;5972;42.134;24.718;2022-10-26T10:38:28;4.32;;;2.08;;
11829;SDS011;5972;42.134;24.718;2022-10-26T10:40:56;7.22;;;2.22;;
11829;SDS011;5972;42.134;24.718;2022-10-26T10:43:24;4.32;;;2.10;;
11829;SDS011;5972;42.134;24.718;2022-10-26T10:45:54;5.32;;;2.25;;
11829;SDS011;5972;42.134;24.718;2022-10-26T10:48:23;7.72;;;2.10;;
11829;SDS011;5972;42.134;24.718;2022-10-26T10:50:53;8.38;;;2.25;;
11829;SDS011;5972;42.134;24.718;2022-10-26T10:53:23;5.10;;;2.15;;
11829;SDS011;5972;42.134;24.718;2022-10-26T10:58:52;2.80;;;1.80;;
11829;SDS011;5972;42.134;24.718;2022-10-26T11:01:29;7.18;;;1.70;;
11829;SDS011;5972;42.134;24.718;2022-10-26T11:04:18;4.85;;;1.85;;
11829;SDS011;5972;42.134;24.718;2022-10-26T11:07:01;3.20;;;1.67;;
11829;SDS011;5972;42.134;24.718;2022-10-26T11:09:32;5.82;;;1.83;;
11829;SDS011;5972;42.134;24.718;2022-10-26T11:12:02;3.85;;;2.08;;
11829;SDS011;5972;42.134;24.718;2022-10-26T11:14:39;3.72;;;1.80;;
11829;SDS011;5972;42.134;24.718;2022-10-26T11:17:12;6.13;;;2.00;;
11829;SDS011;5972;42.134;24.718;2022-10-26T11:19:42;2.78;;;1.50;;
11829;SDS011;5972;42.134;24.718;2022-10-26T11:22:15;7.55;;;1.90;;
11829;SDS011;5972;42.134;24.718;2022-10-26T11:24:48;4.45;;;1.67;;
11829;SDS011;5972;42.134;24.718;2022-10-26T11:27:20;2.30;;;1.70;;
11829;SDS011;5972;42.134;24.718;2022-10-26T11:29:57;6.25;;;2.28;;
11829;SDS011;5972;42.134;24.718;2022-10-26T11:32:29;2.53;;;1.65;;
11829;SDS011;5972;42.134;24.718;2022-10-26T11:35:02;5.68;;;1.60;;
11829;SDS011;5972;42.134;24.718;2022-10-26T11:37:38;4.53;;;2.05;;
11829;SDS011;5972;42.134;24.718;2022-10-26T11:40:21;5.07;;;2.28;;
11829;SDS011;5972;42.134;24.718;2022-10-26T11:42:54;3.65;;;1.83;;
11829;SDS011;5972;42.134;24.718;2022-10-26T11:45:31;3.83;;;2.05;;
11829;SDS011;5972;42.134;24.718;2022-10-26T11:48:03;3.40;;;2.20;;
11829;SDS011;5972;42.134;24.718;2022-10-26T11:50:39;4.75;;;2.40;;
11829;SDS011;5972;42.134;24.718;2022-10-26T11:53:11;2.30;;;1.70;;
11829;SDS011;5972;42.134;24.718;2022-10-26T11:55:40;5.47;;;2.00;;
11829;SDS011;5972;42.134;24.718;2022-10-26T11:58:08;3.50;;;1.70;;
11829;SDS011;5972;42.134;24.718;2022-10-26T12:00:40;4.45;;;1.67;;
11829;SDS011;5972;42.134;24.718;2022-10-26T12:03:12;2.92;;;1.70;;
11829;SDS011;5972;42.134;24.718;2022-10-26T12:05:46;4.55;;;1.60;;
11829;SDS011;5972;42.134;24.718;2022-10-26T12:08:16;4.93;;;1.90;;
11829;SDS011;5972;42.134;24.718;2022-10-26T12:10:51;4.43;;;1.67;;
11829;SDS011;5972;42.134;24.718;2022-10-26T12:13:24;3.60;;;1.58;;
11829;SDS011;5972;42.134;24.718;2022-10-26T12:16:00;5.80;;;1.60;;
11829;SDS011;5972;42.134;24.718;2022-10-26T12:18:33;4.05;;;1.98;;
11829;SDS011;5972;42.134;24.718;2022-10-26T12:21:06;6.15;;;1.90;;
11829;SDS011;5972;42.134;24.718;2022-10-26T12:23:35;5.70;;;1.98;;
11829;SDS011;5972;42.134;24.718;2022-10-26T12:29:23;4.82;;;2.10;;
11829;SDS011;5972;42.134;24.718;2022-10-26T12:31:54;5.72;;;2.20;;
11829;SDS011;5972;42.134;24.718;2022-10-26T12:34:21;5.45;;;1.98;;
11829;SDS011;5972;42.134;24.718;2022-10-26T12:36:52;5.55;;;1.83;;
11829;SDS011;5972;42.134;24.718;2022-10-26T12:39:37;5.63;;;2.00;;
11829;SDS011;5972;42.134;24.718;2022-10-26T12:42:09;5.18;;;1.90;;
11829;SDS011;5972;42.134;24.718;2022-10-26T12:45:05;5.85;;;2.05;;
11829;SDS011;5972;42.134;24.718;2022-10-26T12:48:02;2.47;;;2.00;;
11829;SDS011;5972;42.134;24.718;2022-10-26T12:50:31;4.18;;;2.00;;
11829;SDS011;5972;42.134;24.718;2022-10-26T12:52:59;6.78;;;2.65;;
11829;SDS011;5972;42.134;24.718;2022-10-26T13:01:51;10.02;;;2.55;;
11829;SDS011;5972;42.134;24.718;2022-10-26T13:07:50;11.32;;;2.72;;
11829;SDS011;5972;42.134;24.718;2022-10-26T13:10:18;8.13;;;2.55;;
11829;SDS011;5972;42.134;24.718;2022-10-26T13:12:48;5.30;;;2.25;;
11829;SDS011;5972;42.134;24.718;2022-10-26T13:15:22;6.85;;;2.15;;
11829;SDS011;5972;42.134;24.718;2022-10-26T13:17:52;8.02;;;2.50;;
11829;SDS011;5972;42.134;24.718;2022-10-26T13:20:29;10.70;;;2.92;;
11829;SDS011;5972;42.134;24.718;2022-10-26T13:22:57;7.38;;;2.47;;
11829;SDS011;5972;42.134;24.718;2022-10-26T13:25:25;7.22;;;2.38;;
11829;SDS011;5972;42.134;24.718;2022-10-26T13:28:01;7.70;;;2.25;;
11829;SDS011;5972;42.134;24.718;2022-10-26T13:30:34;6.90;;;2.42;;
11829;SDS011;5972;42.134;24.718;2022-10-26T13:33:19;5.22;;;2.47;;
11829;SDS011;5972;42.134;24.718;2022-10-26T13:35:52;8.75;;;2.20;;
11829;SDS011;5972;42.134;24.718;2022-10-26T13:38:23;6.88;;;2.15;;
11829;SDS011;5972;42.134;24.718;2022-10-26T13:40:58;3.63;;;2.17;;
11829;SDS011;5972;42.134;24.718;2022-10-26T13:43:29;9.43;;;2.58;;
11829;SDS011;5972;42.134;24.718;2022-10-26T13:45:58;4.88;;;2.10;;
11829;SDS011;5972;42.134;24.718;2022-10-26T13:48:32;4.43;;;2.30;;
11829;SDS011;5972;42.134;24.718;2022-10-26T13:51:09;6.05;;;1.90;;
11829;SDS011;5972;42.134;24.718;2022-10-26T13:53:41;4.80;;;1.90;;
11829;SDS011;5972;42.134;24.718;2022-10-26T13:56:15;5.82;;;2.22;;
11829;SDS011;5972;42.134;24.718;2022-10-26T13:58:48;10.05;;;2.90;;
11829;SDS011;5972;42.134;24.718;2022-10-26T14:01:23;3.58;;;2.15;;
11829;SDS011;5972;42.134;24.718;2022-10-26T14:03:50;3.72;;;2.38;;
11829;SDS011;5972;42.134;24.718;2022-10-26T14:06:20;7.93;;;2.28;;
11829;SDS011;5972;42.134;24.718;2022-10-26T14:08:52;4.60;;;2.38;;
11829;SDS011;5972;42.134;24.718;2022-10-26T14:11:22;9.60;;;2.33;;
11829;SDS011;5972;42.134;24.718;2022-10-26T14:13:57;4.60;;;2.17;;
11829;SDS011;5972;42.134;24.718;2022-10-26T14:16:24;7.15;;;2.15;;
11829;SDS011;5972;42.134;24.718;2022-10-26T14:18:54;5.78;;;2.95;;
11829;SDS011;5972;42.134;24.718;2022-10-26T14:21:23;5.90;;;2.67;;
11829;SDS011;5972;42.134;24.718;2022-10-26T14:23:50;4.22;;;2.55;;
11829;SDS011;5972;42.134;24.718;2022-10-26T14:26:20;5.97;;;2.70;;
11829;SDS011;5972;42.134;24.718;2022-10-26T14:28:50;9.38;;;3.17;;
11829;SDS011;5972;42.134;24.718;2022-10-26T14:31:21;12.63;;;4.15;;
11829;SDS011;5972;42.134;24.718;2022-10-26T14:33:50;6.07;;;3.13;;
11829;SDS011;5972;42.134;24.718;2022-10-26T14:36:18;12.02;;;3.60;;
11829;SDS011;5972;42.134;24.718;2022-10-26T14:38:49;10.25;;;3.28;;
11829;SDS011;5972;42.134;24.718;2022-10-26T14:41:20;8.02;;;3.00;;
11829;SDS011;5972;42.134;24.718;2022-10-26T14:43:48;11.18;;;3.88;;
11829;SDS011;5972;42.134;24.718;2022-10-26T14:46:16;14.25;;;5.38;;
11829;SDS011;5972;42.134;24.718;2022-10-26T14:48:51;14.05;;;4.82;;
11829;SDS011;5972;42.134;24.718;2022-10-26T14:51:21;9.13;;;3.72;;
11829;SDS011;5972;42.134;24.718;2022-10-26T14:53:54;9.57;;;3.78;;
11829;SDS011;5972;42.134;24.718;2022-10-26T14:56:24;9.85;;;4.25;;
11829;SDS011;5972;42.134;24.718;2022-10-26T14:58:54;13.32;;;5.07;;
11829;SDS011;5972;42.134;24.718;2022-10-26T15:01:23;13.98;;;5.03;;
11829;SDS011;5972;42.134;24.718;2022-10-26T15:03:55;12.35;;;4.32;;
11829;SDS011;5972;42.134;24.718;2022-10-26T15:11:57;10.63;;;4.43;;
11829;SDS011;5972;42.134;24.718;2022-10-26T15:14:27;15.38;;;4.50;;
11829;SDS011;5972;42.134;24.718;2022-10-26T15:16:55;6.95;;;4.55;;
11829;SDS011;5972;42.134;24.718;2022-10-26T15:19:23;15.45;;;5.28;;
11829;SDS011;5972;42.134;24.718;2022-10-26T15:21:52;15.15;;;4.97;;
11829;SDS011;5972;42.134;24.718;2022-10-26T15:24:23;21.45;;;6.95;;
11829;SDS011;5972;42.134;24.718;2022-10-26T15:26:55;10.27;;;6.00;;